sensor_id;sensor_type;location;lat;lon;timestamp;pressure;altitude;pressure_sealevel;temperature;humidity
49030;BME280;43337;52.070;4.508;2023-01-31T00:01:11;102627.09;;;3.68;100.00
49030;BME280;43337;52.070;4.508;2023-01-31T00:03:39;102630.75;;;3.81;100.00
49030;BME280;43337;52.070;4.508;2023-01-31T00:08:34;102614.38;;;3.88;100.00
49030;BME280;43337;52.070;4.508;2023-01-31T00:10:59;102619.69;;;3.98;100.00
49030;BME280;43337;52.070;4.508;2023-01-31T00:13:26;102637.31;;;4.15;100.00
49030;BME280;43337;52.070;4.508;2023-01-31T00:15:55;102630.38;;;4.16;100.00
49030;BME280;43337;52.070;4.508;2023-01-31T00:18:24;102622.56;;;4.18;100.00
49030;BME280;43337;52.070;4.508;2023-01-31T00:20:49;102607.75;;;4.15;100.00
49030;BME280;43337;52.070;4.508;2023-01-31T00:23:15;102603.44;;;4.15;100.00
49030;BME280;43337;52.070;4.508;2023-01-31T00:25:40;102593.84;;;4.14;100.00
49030;BME280;43337;52.070;4.508;2023-01-31T00:28:05;102606.91;;;4.18;100.00
49030;BME280;43337;52.070;4.508;2023-01-31T00:30:31;102571.09;;;4.03;100.00
49030;BME280;43337;52.070;4.508;2023-01-31T00:32:56;102590.31;;;4.11;100.00
49030;BME280;43337;52.070;4.508;2023-01-31T00:35:21;102546.59;;;3.87;100.00
49030;BME280;43337;52.070;4.508;2023-01-31T00:37:47;102533.50;;;3.84;100.00
49030;BME280;43337;52.070;4.508;2023-01-31T00:40:12;102523.91;;;3.80;100.00
49030;BME280;43337;52.070;4.508;2023-01-31T00:42:38;102570.28;;;4.05;100.00
49030;BME280;43337;52.070;4.508;2023-01-31T00:45:04;102546.63;;;3.91;100.00
49030;BME280;43337;52.070;4.508;2023-01-31T00:47:30;102551.91;;;3.95;100.00
49030;BME280;43337;52.070;4.508;2023-01-31T00:49:56;102557.16;;;3.98;100.00
49030;BME280;43337;52.070;4.508;2023-01-31T00:52:21;102551.91;;;3.95;100.00
49030;BME280;43337;52.070;4.508;2023-01-31T00:54:47;102551.88;;;3.93;100.00
49030;BME280;43337;52.070;4.508;2023-01-31T00:57:13;102545.72;;;3.86;100.00
49030;BME280;43337;52.070;4.508;2023-01-31T00:59:38;102540.44;;;3.82;100.00
49030;BME280;43337;52.070;4.508;2023-01-31T01:02:04;102535.25;;;3.82;100.00
49030;BME280;43337;52.070;4.508;2023-01-31T01:04:29;102536.97;;;3.83;100.00
49030;BME280;43337;52.070;4.508;2023-01-31T01:06:54;102544.03;;;3.88;100.00
49030;BME280;43337;52.070;4.508;2023-01-31T01:09:20;102533.50;;;3.84;100.00
49030;BME280;43337;52.070;4.508;2023-01-31T01:11:47;102537.03;;;3.84;100.00
49030;BME280;43337;52.070;4.508;2023-01-31T01:14:12;102514.25;;;3.73;100.00
49030;BME280;43337;52.070;4.508;2023-01-31T01:16:39;102526.50;;;3.78;100.00
49030;BME280;43337;52.070;4.508;2023-01-31T01:19:07;102528.28;;;3.82;100.00
49030;BME280;43337;52.070;4.508;2023-01-31T01:21:35;102511.75;;;3.77;100.00
49030;BME280;43337;52.070;4.508;2023-01-31T01:24:05;102468.88;;;3.51;100.00
49030;BME280;43337;52.070;4.508;2023-01-31T01:26:32;102525.66;;;3.79;100.00
49030;BME280;43337;52.070;4.508;2023-01-31T01:28:59;102510.88;;;3.77;100.00
49030;BME280;43337;52.070;4.508;2023-01-31T01:31:26;102518.66;;;3.75;100.00
49030;BME280;43337;52.070;4.508;2023-01-31T01:33:55;102535.28;;;3.85;100.00
49030;BME280;43337;52.070;4.508;2023-01-31T01:36:21;102535.28;;;3.86;100.00
49030;BME280;43337;52.070;4.508;2023-01-31T01:38:50;102504.75;;;3.76;100.00
49030;BME280;43337;52.070;4.508;2023-01-31T01:41:18;102511.81;;;3.83;100.00
49030;BME280;43337;52.070;4.508;2023-01-31T01:43:48;102545.09;;;4.06;100.00
49030;BME280;43337;52.070;4.508;2023-01-31T01:46:43;102536.47;;;4.13;100.00
49030;BME280;43337;52.070;4.508;2023-01-31T01:49:22;102540.88;;;4.19;100.00
49030;BME280;43337;52.070;4.508;2023-01-31T01:51:54;102545.25;;;4.21;100.00
49030;BME280;43337;52.070;4.508;2023-01-31T01:54:25;102540.09;;;4.26;100.00
49030;BME280;43337;52.070;4.508;2023-01-31T01:56:56;102530.44;;;4.19;100.00
49030;BME280;43337;52.070;4.508;2023-01-31T01:59:28;102524.50;;;4.29;100.00
49030;BME280;43337;52.070;4.508;2023-01-31T02:01:55;102535.91;;;4.38;100.00
49030;BME280;43337;52.070;4.508;2023-01-31T02:04:25;102536.00;;;4.48;100.00
49030;BME280;43337;52.070;4.508;2023-01-31T02:06:52;102517.66;;;4.38;100.00
49030;BME280;43337;52.070;4.508;2023-01-31T02:09:24;102529.06;;;4.51;100.00
49030;BME280;43337;52.070;4.508;2023-01-31T02:11:54;102530.00;;;4.59;100.00
49030;BME280;43337;52.070;4.508;2023-01-31T02:14:20;102539.69;;;4.70;100.00
49030;BME280;43337;52.070;4.508;2023-01-31T02:16:45;102545.81;;;4.73;100.00
49030;BME280;43337;52.070;4.508;2023-01-31T02:22:11;102544.88;;;4.68;100.00
49030;BME280;43337;52.070;4.508;2023-01-31T02:27:58;102526.56;;;4.65;100.00
49030;BME280;43337;52.070;4.508;2023-01-31T02:33:12;102537.94;;;4.70;100.00
49030;BME280;43337;52.070;4.508;2023-01-31T02:35:52;102537.06;;;4.71;100.00
49030;BME280;43337;52.070;4.508;2023-01-31T02:40:53;102534.53;;;4.77;100.00
49030;BME280;43337;52.070;4.508;2023-01-31T02:46:01;102511.94;;;4.78;100.00
49030;BME280;43337;52.070;4.508;2023-01-31T02:48:41;102518.06;;;4.87;100.00
49030;BME280;43337;52.070;4.508;2023-01-31T02:51:18;102512.84;;;4.87;100.00
49030;BME280;43337;52.070;4.508;2023-01-31T02:54:13;102512.88;;;4.86;100.00
49030;BME280;43337;52.070;4.508;2023-01-31T02:56:43;102500.69;;;4.88;100.00
49030;BME280;43337;52.070;4.508;2023-01-31T02:59:20;102498.97;;;4.92;100.00
49030;BME280;43337;52.070;4.508;2023-01-31T03:01:56;102506.81;;;4.92;100.00
49030;BME280;43337;52.070;4.508;2023-01-31T03:04:22;102500.75;;;4.93;100.00
49030;BME280;43337;52.070;4.508;2023-01-31T03:06:56;102492.00;;;4.89;100.00
49030;BME280;43337;52.070;4.508;2023-01-31T03:09:33;102487.59;;;4.83;100.00
49030;BME280;43337;52.070;4.508;2023-01-31T03:12:18;102489.38;;;4.87;100.00
49030;BME280;43337;52.070;4.508;2023-01-31T03:17:42;102497.19;;;4.84;100.00
49030;BME280;43337;52.070;4.508;2023-01-31T03:22:51;102491.00;;;4.72;100.00
49030;BME280;43337;52.070;4.508;2023-01-31T03:25:22;102456.03;;;4.51;100.00
49030;BME280;43337;52.070;4.508;2023-01-31T03:27:58;102495.41;;;4.77;100.00
49030;BME280;43337;52.070;4.508;2023-01-31T03:30:34;102495.47;;;4.85;100.00
49030;BME280;43337;52.070;4.508;2023-01-31T03:33:07;102487.66;;;4.91;100.00
49030;BME280;43337;52.070;4.508;2023-01-31T03:35:36;102484.28;;;5.00;100.00
49030;BME280;43337;52.070;4.508;2023-01-31T03:38:29;102480.81;;;5.05;100.00
49030;BME280;43337;52.070;4.508;2023-01-31T03:41:02;102473.84;;;5.06;100.00
49030;BME280;43337;52.070;4.508;2023-01-31T03:43:38;102464.31;;;5.11;100.00
49030;BME280;43337;52.070;4.508;2023-01-31T03:46:14;102460.84;;;5.07;100.00
49030;BME280;43337;52.070;4.508;2023-01-31T03:48:44;102445.13;;;5.06;100.00
49030;BME280;43337;52.070;4.508;2023-01-31T03:51:17;102453.00;;;5.09;100.00
49030;BME280;43337;52.070;4.508;2023-01-31T03:53:56;102458.25;;;5.12;100.00
49030;BME280;43337;52.070;4.508;2023-01-31T03:56:36;102467.81;;;5.14;100.00
49030;BME280;43337;52.070;4.508;2023-01-31T03:59:17;102483.53;;;5.22;100.00
49030;BME280;43337;52.070;4.508;2023-01-31T04:01:47;102466.13;;;5.21;100.00
49030;BME280;43337;52.070;4.508;2023-01-31T04:04:19;102468.78;;;5.29;100.00
49030;BME280;43337;52.070;4.508;2023-01-31T04:06:46;102478.38;;;5.33;100.00
49030;BME280;43337;52.070;4.508;2023-01-31T04:09:12;102448.78;;;5.34;100.00
49030;BME280;43337;52.070;4.508;2023-01-31T04:11:39;102457.53;;;5.41;100.00
49030;BME280;43337;52.070;4.508;2023-01-31T04:14:05;102461.91;;;5.49;100.00
49030;BME280;43337;52.070;4.508;2023-01-31T04:16:32;102440.09;;;5.41;100.00
49030;BME280;43337;52.070;4.508;2023-01-31T04:18:57;102458.47;;;5.55;100.00
49030;BME280;43337;52.070;4.508;2023-01-31T04:21:24;102421.81;;;5.41;100.00
49030;BME280;43337;52.070;4.508;2023-01-31T04:23:49;102449.78;;;5.62;100.00
49030;BME280;43337;52.070;4.508;2023-01-31T04:26:14;102449.75;;;5.60;100.00
49030;BME280;43337;52.070;4.508;2023-01-31T04:28:40;102455.88;;;5.64;100.00
49030;BME280;43337;52.070;4.508;2023-01-31T04:31:06;102440.19;;;5.64;100.00
49030;BME280;43337;52.070;4.508;2023-01-31T04:33:31;102439.34;;;5.63;100.00
49030;BME280;43337;52.070;4.508;2023-01-31T04:35:57;102415.78;;;5.56;100.00
49030;BME280;43337;52.070;4.508;2023-01-31T04:38:22;102428.88;;;5.68;100.00
49030;BME280;43337;52.070;4.508;2023-01-31T04:40:49;102414.94;;;5.64;100.00
49030;BME280;43337;52.070;4.508;2023-01-31T04:43:15;102411.47;;;5.69;100.00
49030;BME280;43337;52.070;4.508;2023-01-31T04:45:40;102431.56;;;5.77;100.00
49030;BME280;43337;52.070;4.508;2023-01-31T04:48:06;102415.00;;;5.74;100.00
49030;BME280;43337;52.070;4.508;2023-01-31T04:50:31;102407.13;;;5.71;100.00
49030;BME280;43337;52.070;4.508;2023-01-31T04:52:56;102416.72;;;5.70;100.00
49030;BME280;43337;52.070;4.508;2023-01-31T04:55:22;102407.13;;;5.68;100.00
49030;BME280;43337;52.070;4.508;2023-01-31T04:57:47;102413.25;;;5.79;100.00
49030;BME280;43337;52.070;4.508;2023-01-31T05:00:13;102404.56;;;5.77;100.00
49030;BME280;43337;52.070;4.508;2023-01-31T05:02:39;102407.13;;;5.75;100.00
49030;BME280;43337;52.070;4.508;2023-01-31T05:05:05;102400.19;;;5.74;100.00
49030;BME280;43337;52.070;4.508;2023-01-31T05:07:31;102410.66;;;5.82;100.00
49030;BME280;43337;52.070;4.508;2023-01-31T05:09:56;102391.50;;;5.84;100.00
49030;BME280;43337;52.070;4.508;2023-01-31T05:12:23;102386.25;;;5.83;100.00
49030;BME280;43337;52.070;4.508;2023-01-31T05:14:48;102375.78;;;5.80;100.00
49030;BME280;43337;52.070;4.508;2023-01-31T05:17:15;102374.06;;;5.82;100.00
49030;BME280;43337;52.070;4.508;2023-01-31T05:19:40;102385.41;;;5.88;100.00
49030;BME280;43337;52.070;4.508;2023-01-31T05:22:08;102399.34;;;5.89;100.00
49030;BME280;43337;52.070;4.508;2023-01-31T05:24:33;102397.59;;;5.91;100.00
49030;BME280;43337;52.070;4.508;2023-01-31T05:27:00;102397.59;;;5.90;100.00
49030;BME280;43337;52.070;4.508;2023-01-31T05:29:31;102403.75;;;5.96;100.00
49030;BME280;43337;52.070;4.508;2023-01-31T05:31:58;102401.13;;;5.98;100.00
49030;BME280;43337;52.070;4.508;2023-01-31T05:34:25;102391.53;;;5.95;100.00
49030;BME280;43337;52.070;4.508;2023-01-31T05:36:51;102389.81;;;5.97;100.00
49030;BME280;43337;52.070;4.508;2023-01-31T05:39:16;102388.06;;;5.98;100.00
49030;BME280;43337;52.070;4.508;2023-01-31T05:41:42;102402.00;;;6.01;100.00
49030;BME280;43337;52.070;4.508;2023-01-31T05:44:08;102403.75;;;6.02;100.00
49030;BME280;43337;52.070;4.508;2023-01-31T05:46:34;102421.19;;;6.02;100.00
49030;BME280;43337;52.070;4.508;2023-01-31T05:49:00;102405.47;;;6.03;100.00
49030;BME280;43337;52.070;4.508;2023-01-31T05:51:26;102415.09;;;6.04;100.00
49030;BME280;43337;52.070;4.508;2023-01-31T05:53:52;102414.19;;;5.98;100.00
49030;BME280;43337;52.070;4.508;2023-01-31T05:56:19;102405.47;;;5.94;100.00
49030;BME280;43337;52.070;4.508;2023-01-31T05:58:44;102411.59;;;5.98;100.00
49030;BME280;43337;52.070;4.508;2023-01-31T06:01:20;102385.44;;;5.93;100.00
49030;BME280;43337;52.070;4.508;2023-01-31T06:03:46;102378.47;;;5.92;100.00
49030;BME280;43337;52.070;4.508;2023-01-31T06:06:12;102391.56;;;6.00;100.00
49030;BME280;43337;52.070;4.508;2023-01-31T06:08:38;102394.16;;;6.01;100.00
49030;BME280;43337;52.070;4.508;2023-01-31T06:11:04;102395.03;;;6.00;100.00
49030;BME280;43337;52.070;4.508;2023-01-31T06:13:30;102396.78;;;6.03;100.00
49030;BME280;43337;52.070;4.508;2023-01-31T06:15:56;102386.31;;;5.95;100.00
49030;BME280;43337;52.070;4.508;2023-01-31T06:18:21;102347.91;;;5.79;100.00
49030;BME280;43337;52.070;4.508;2023-01-31T06:20:46;102381.94;;;5.99;100.00
49030;BME280;43337;52.070;4.508;2023-01-31T06:23:12;102395.91;;;6.01;100.00
49030;BME280;43337;52.070;4.508;2023-01-31T06:25:37;102396.78;;;6.04;100.00
49030;BME280;43337;52.070;4.508;2023-01-31T06:28:03;102381.09;;;6.04;100.00
49030;BME280;43337;52.070;4.508;2023-01-31T06:30:29;102376.72;;;6.03;100.00
49030;BME280;43337;52.070;4.508;2023-01-31T06:32:54;102384.59;;;6.00;100.00
49030;BME280;43337;52.070;4.508;2023-01-31T06:35:19;102376.72;;;5.99;100.00
49030;BME280;43337;52.070;4.508;2023-01-31T06:37:45;102373.25;;;6.01;100.00
49030;BME280;43337;52.070;4.508;2023-01-31T06:40:10;102348.84;;;5.93;100.00
49030;BME280;43337;52.070;4.508;2023-01-31T06:42:36;102335.72;;;5.87;100.00
49030;BME280;43337;52.070;4.508;2023-01-31T06:45:01;102334.00;;;5.86;100.00
49030;BME280;43337;52.070;4.508;2023-01-31T06:47:27;102326.13;;;5.75;100.00
49030;BME280;43337;52.070;4.508;2023-01-31T06:49:52;102328.75;;;5.74;100.00
49030;BME280;43337;52.070;4.508;2023-01-31T06:52:17;102348.81;;;5.85;100.00
49030;BME280;43337;52.070;4.508;2023-01-31T06:54:43;102341.81;;;5.83;100.00
49030;BME280;43337;52.070;4.508;2023-01-31T06:57:08;102330.50;;;5.73;100.00
49030;BME280;43337;52.070;4.508;2023-01-31T06:59:34;102347.91;;;5.79;100.00
49030;BME280;43337;52.070;4.508;2023-01-31T07:01:59;102339.22;;;5.78;100.00
49030;BME280;43337;52.070;4.508;2023-01-31T07:04:25;102330.50;;;5.78;100.00
49030;BME280;43337;52.070;4.508;2023-01-31T07:06:50;102308.72;;;5.71;100.00
49030;BME280;43337;52.070;4.508;2023-01-31T07:09:16;102309.56;;;5.72;100.00
49030;BME280;43337;52.070;4.508;2023-01-31T07:11:41;102300.88;;;5.71;100.00
49030;BME280;43337;52.070;4.508;2023-01-31T07:14:07;102306.09;;;5.65;100.00
49030;BME280;43337;52.070;4.508;2023-01-31T07:16:32;102316.53;;;5.71;100.00
49030;BME280;43337;52.070;4.508;2023-01-31T07:18:58;102309.56;;;5.72;100.00
49030;BME280;43337;52.070;4.508;2023-01-31T07:21:23;102314.81;;;5.73;100.00
49030;BME280;43337;52.070;4.508;2023-01-31T07:23:50;102324.41;;;5.80;100.00
49030;BME280;43337;52.070;4.508;2023-01-31T07:26:15;102304.34;;;5.76;100.00
49030;BME280;43337;52.070;4.508;2023-01-31T07:28:41;102314.81;;;5.84;100.00
49030;BME280;43337;52.070;4.508;2023-01-31T07:31:10;102281.72;;;5.71;100.00
49030;BME280;43337;52.070;4.508;2023-01-31T07:33:37;102300.00;;;5.86;100.00
49030;BME280;43337;52.070;4.508;2023-01-31T07:36:03;102303.50;;;5.90;100.00
49030;BME280;43337;52.070;4.508;2023-01-31T07:38:32;102307.91;;;5.92;100.00
49030;BME280;43337;52.070;4.508;2023-01-31T07:41:00;102273.00;;;5.81;100.00
49030;BME280;43337;52.070;4.508;2023-01-31T07:43:26;102285.25;;;5.97;100.00
49030;BME280;43337;52.070;4.508;2023-01-31T07:45:52;102268.66;;;5.84;100.00
49030;BME280;43337;52.070;4.508;2023-01-31T07:48:17;102267.78;;;5.88;100.00
49030;BME280;43337;52.070;4.508;2023-01-31T07:50:49;102270.38;;;5.92;100.00
49030;BME280;43337;52.070;4.508;2023-01-31T07:53:15;102284.38;;;5.97;100.00
49030;BME280;43337;52.070;4.508;2023-01-31T07:55:40;102268.66;;;5.95;100.00
49030;BME280;43337;52.070;4.508;2023-01-31T07:58:05;102259.94;;;5.85;100.00
49030;BME280;43337;52.070;4.508;2023-01-31T08:00:31;102261.69;;;5.85;100.00
49030;BME280;43337;52.070;4.508;2023-01-31T08:03:27;102267.78;;;5.79;100.00
49030;BME280;43337;52.070;4.508;2023-01-31T08:06:10;102282.59;;;5.77;100.00
49030;BME280;43337;52.070;4.508;2023-01-31T08:08:37;102252.09;;;5.75;100.00
49030;BME280;43337;52.070;4.508;2023-01-31T08:11:03;102246.00;;;5.71;100.00
49030;BME280;43337;52.070;4.508;2023-01-31T08:13:30;102273.00;;;5.84;100.00
49030;BME280;43337;52.070;4.508;2023-01-31T08:15:55;102250.34;;;5.71;100.00
49030;BME280;43337;52.070;4.508;2023-01-31T08:18:21;102261.69;;;5.82;100.00
49030;BME280;43337;52.070;4.508;2023-01-31T08:20:46;102273.00;;;5.82;100.00
49030;BME280;43337;52.070;4.508;2023-01-31T08:23:11;102262.53;;;5.79;100.00
49030;BME280;43337;52.070;4.508;2023-01-31T08:25:37;102243.41;;;5.77;100.00
49030;BME280;43337;52.070;4.508;2023-01-31T08:28:02;102243.41;;;5.70;100.00
49030;BME280;43337;52.070;4.508;2023-01-31T08:30:28;102257.31;;;5.76;100.00
49030;BME280;43337;52.070;4.508;2023-01-31T08:32:54;102254.69;;;5.76;100.00
49030;BME280;43337;52.070;4.508;2023-01-31T08:35:20;102252.97;;;5.75;100.00
49030;BME280;43337;52.070;4.508;2023-01-31T08:37:45;102217.25;;;5.59;100.00
49030;BME280;43337;52.070;4.508;2023-01-31T08:40:11;102220.75;;;5.58;100.00
49030;BME280;43337;52.070;4.508;2023-01-31T08:42:36;102255.56;;;5.72;100.00
49030;BME280;43337;52.070;4.508;2023-01-31T08:45:02;102225.09;;;5.68;100.00
49030;BME280;43337;52.070;4.508;2023-01-31T08:47:28;102248.63;;;5.82;100.00
49030;BME280;43337;52.070;4.508;2023-01-31T08:49:53;102235.53;;;5.83;100.00
49030;BME280;43337;52.070;4.508;2023-01-31T08:52:18;102241.66;;;5.82;100.00
49030;BME280;43337;52.070;4.508;2023-01-31T08:54:44;102266.94;;;5.93;100.00
49030;BME280;43337;52.070;4.508;2023-01-31T08:57:09;102263.44;;;5.95;100.00
49030;BME280;43337;52.070;4.508;2023-01-31T08:59:34;102271.31;;;6.00;100.00
49030;BME280;43337;52.070;4.508;2023-01-31T09:02:00;102273.91;;;6.03;100.00
49030;BME280;43337;52.070;4.508;2023-01-31T09:04:26;102276.50;;;6.06;100.00
49030;BME280;43337;52.070;4.508;2023-01-31T09:06:53;102266.06;;;6.14;100.00
49030;BME280;43337;52.070;4.508;2023-01-31T09:09:19;102252.09;;;6.13;100.00
49030;BME280;43337;52.070;4.508;2023-01-31T09:11:44;102252.97;;;6.17;100.00
49030;BME280;43337;52.070;4.508;2023-01-31T09:14:10;102256.44;;;6.25;100.00
49030;BME280;43337;52.070;4.508;2023-01-31T09:16:36;102250.34;;;6.35;100.00
49030;BME280;43337;52.070;4.508;2023-01-31T09:19:02;102240.75;;;6.39;100.00
49030;BME280;43337;52.070;4.508;2023-01-31T09:21:27;102214.53;;;6.42;100.00
49030;BME280;43337;52.070;4.508;2023-01-31T09:23:58;102219.75;;;6.54;100.00
49030;BME280;43337;52.070;4.508;2023-01-31T09:26:24;102224.94;;;6.65;100.00
49030;BME280;43337;52.070;4.508;2023-01-31T09:28:49;102201.41;;;6.62;100.00
49030;BME280;43337;52.070;4.508;2023-01-31T09:31:17;102220.53;;;6.77;100.00
49030;BME280;43337;52.070;4.508;2023-01-31T09:33:44;102220.53;;;6.80;100.00
49030;BME280;43337;52.070;4.508;2023-01-31T09:36:12;102208.28;;;6.85;100.00
49030;BME280;43337;52.070;4.508;2023-01-31T09:38:37;102210.03;;;6.85;100.00
49030;BME280;43337;52.070;4.508;2023-01-31T09:41:24;102201.31;;;6.83;100.00
49030;BME280;43337;52.070;4.508;2023-01-31T09:43:54;102214.41;;;6.84;100.00
49030;BME280;43337;52.070;4.508;2023-01-31T09:46:24;102214.38;;;6.88;100.00
49030;BME280;43337;52.070;4.508;2023-01-31T09:48:54;102211.78;;;6.84;100.00
49030;BME280;43337;52.070;4.508;2023-01-31T09:51:21;102209.16;;;6.86;100.00
49030;BME280;43337;52.070;4.508;2023-01-31T09:53:47;102193.41;;;6.88;100.00
49030;BME280;43337;52.070;4.508;2023-01-31T10:01:58;102201.25;;;6.91;100.00
49030;BME280;43337;52.070;4.508;2023-01-31T10:04:48;102224.75;;;7.03;100.00
49030;BME280;43337;52.070;4.508;2023-01-31T10:07:35;102219.53;;;7.03;100.00
49030;BME280;43337;52.070;4.508;2023-01-31T10:12:47;102224.75;;;7.07;100.00
49030;BME280;43337;52.070;4.508;2023-01-31T10:15:22;102232.56;;;7.15;100.00
49030;BME280;43337;52.070;4.508;2023-01-31T10:18:10;102232.56;;;7.14;100.00
49030;BME280;43337;52.070;4.508;2023-01-31T10:20:43;102230.84;;;7.09;100.00
49030;BME280;43337;52.070;4.508;2023-01-31T10:23:33;102229.97;;;7.12;100.00
49030;BME280;43337;52.070;4.508;2023-01-31T10:26:02;102234.25;;;7.22;100.00
49030;BME280;43337;52.070;4.508;2023-01-31T10:31:09;102214.19;;;7.18;100.00
49030;BME280;43337;52.070;4.508;2023-01-31T10:36:10;102217.66;;;7.22;100.00
49030;BME280;43337;52.070;4.508;2023-01-31T10:38:44;102213.25;;;7.30;100.00
49030;BME280;43337;52.070;4.508;2023-01-31T10:41:23;102210.59;;;7.33;100.00
49030;BME280;43337;52.070;4.508;2023-01-31T10:44:00;102194.06;;;7.25;100.00
49030;BME280;43337;52.070;4.508;2023-01-31T10:46:26;102208.84;;;7.38;100.00
49030;BME280;43337;52.070;4.508;2023-01-31T10:48:53;102187.09;;;7.25;100.00
49030;BME280;43337;52.070;4.508;2023-01-31T10:54:33;102198.38;;;7.38;100.00
49030;BME280;43337;52.070;4.508;2023-01-31T10:57:01;102227.94;;;7.49;100.00
49030;BME280;43337;52.070;4.508;2023-01-31T10:59:35;102218.38;;;7.47;100.00
49030;BME280;43337;52.070;4.508;2023-01-31T11:02:02;102225.31;;;7.54;100.00
49030;BME280;43337;52.070;4.508;2023-01-31T11:04:35;102206.13;;;7.49;100.00
49030;BME280;43337;52.070;4.508;2023-01-31T11:07:03;102222.63;;;7.60;100.00
49030;BME280;43337;52.070;4.508;2023-01-31T11:09:38;102217.44;;;7.55;100.00
49030;BME280;43337;52.070;4.508;2023-01-31T11:12:05;102237.47;;;7.66;100.00
49030;BME280;43337;52.070;4.508;2023-01-31T11:14:31;102219.16;;;7.59;100.00
49030;BME280;43337;52.070;4.508;2023-01-31T11:17:07;102226.06;;;7.70;100.00
49030;BME280;43337;52.070;4.508;2023-01-31T11:19:42;102218.25;;;7.64;100.00
49030;BME280;43337;52.070;4.508;2023-01-31T11:24:46;102226.94;;;7.67;100.00
49030;BME280;43337;52.070;4.508;2023-01-31T11:27:23;102220.88;;;7.65;100.00
49030;BME280;43337;52.070;4.508;2023-01-31T11:29:50;102217.31;;;7.71;100.00
49030;BME280;43337;52.070;4.508;2023-01-31T11:32:24;102224.31;;;7.70;100.00
49030;BME280;43337;52.070;4.508;2023-01-31T11:35:33;102222.56;;;7.69;100.00
49030;BME280;43337;52.070;4.508;2023-01-31T11:40:35;102213.81;;;7.70;100.00
49030;BME280;43337;52.070;4.508;2023-01-31T11:43:06;102214.69;;;7.71;100.00
49030;BME280;43337;52.070;4.508;2023-01-31T11:48:39;102219.09;;;7.64;100.00
49030;BME280;43337;52.070;4.508;2023-01-31T11:51:05;102207.72;;;7.68;100.00
49030;BME280;43337;52.070;4.508;2023-01-31T11:53:44;102213.78;;;7.72;100.00
49030;BME280;43337;52.070;4.508;2023-01-31T11:56:25;102204.22;;;7.69;100.00
49030;BME280;43337;52.070;4.508;2023-01-31T11:58:52;102206.78;;;7.75;100.00
49030;BME280;43337;52.070;4.508;2023-01-31T12:01:20;102193.66;;;7.75;100.00
49030;BME280;43337;52.070;4.508;2023-01-31T12:03:51;102203.25;;;7.79;100.00
49030;BME280;43337;52.070;4.508;2023-01-31T12:06:28;102179.69;;;7.76;100.00
49030;BME280;43337;52.070;4.508;2023-01-31T12:08:57;102181.41;;;7.79;100.00
49030;BME280;43337;52.070;4.508;2023-01-31T12:11:31;102193.59;;;7.83;100.00
49030;BME280;43337;52.070;4.508;2023-01-31T12:16:33;102181.34;;;7.87;100.00
49030;BME280;43337;52.070;4.508;2023-01-31T12:28:11;102169.81;;;8.03;100.00
49030;BME280;43337;52.070;4.508;2023-01-31T12:36:21;102178.41;;;8.17;100.00
49030;BME280;43337;52.070;4.508;2023-01-31T12:39:12;102167.84;;;8.22;100.00
49030;BME280;43337;52.070;4.508;2023-01-31T12:41:49;102145.19;;;8.15;100.00
49030;BME280;43337;52.070;4.508;2023-01-31T12:44:40;102165.16;;;8.28;100.00
49030;BME280;43337;52.070;4.508;2023-01-31T12:50:00;102141.59;;;8.25;100.00
49030;BME280;43337;52.070;4.508;2023-01-31T12:52:51;102149.34;;;8.37;100.00
49030;BME280;43337;52.070;4.508;2023-01-31T13:00:54;102118.78;;;8.30;100.00
49030;BME280;43337;52.070;4.508;2023-01-31T13:06:04;102141.34;;;8.49;100.00
49030;BME280;43337;52.070;4.508;2023-01-31T13:08:33;102130.03;;;8.43;100.00
49030;BME280;43337;52.070;4.508;2023-01-31T13:11:20;102131.66;;;8.51;100.00
49030;BME280;43337;52.070;4.508;2023-01-31T13:13:56;102141.19;;;8.59;100.00
49030;BME280;43337;52.070;4.508;2023-01-31T13:16:25;102132.34;;;8.64;100.00
49030;BME280;43337;52.070;4.508;2023-01-31T13:18:56;102134.91;;;8.70;100.00
49030;BME280;43337;52.070;4.508;2023-01-31T13:21:27;102137.47;;;8.75;100.00
49030;BME280;43337;52.070;4.508;2023-01-31T13:24:02;102126.91;;;8.79;100.00
49030;BME280;43337;52.070;4.508;2023-01-31T13:26:34;102133.78;;;8.87;100.00
49030;BME280;43337;52.070;4.508;2023-01-31T13:29:23;102118.16;;;8.80;100.00
49030;BME280;43337;52.070;4.508;2023-01-31T13:32:29;102146.84;;;8.93;100.00
49030;BME280;43337;52.070;4.508;2023-01-31T13:35:17;102137.97;;;9.01;100.00
49030;BME280;43337;52.070;4.508;2023-01-31T13:37:47;102140.63;;;9.00;100.00
49030;BME280;43337;52.070;4.508;2023-01-31T13:40:47;102156.50;;;8.92;100.00
49030;BME280;43337;52.070;4.508;2023-01-31T13:43:15;102161.75;;;8.91;100.00
49030;BME280;43337;52.070;4.508;2023-01-31T13:45:45;102115.75;;;8.65;100.00
49030;BME280;43337;52.070;4.508;2023-01-31T13:50:53;102140.13;;;8.73;100.00
49030;BME280;43337;52.070;4.508;2023-01-31T13:53:27;102161.13;;;8.72;100.00
49030;BME280;43337;52.070;4.508;2023-01-31T13:55:53;102158.56;;;8.69;100.00
49030;BME280;43337;52.070;4.508;2023-01-31T13:58:27;102173.50;;;8.65;100.00
49030;BME280;43337;52.070;4.508;2023-01-31T14:01:06;102193.59;;;8.66;100.00
49030;BME280;43337;52.070;4.508;2023-01-31T14:06:55;102171.00;;;8.54;100.00
49030;BME280;43337;52.070;4.508;2023-01-31T14:09:25;102191.00;;;8.63;100.00
49030;BME280;43337;52.070;4.508;2023-01-31T14:11:52;102198.84;;;8.65;100.00
49030;BME280;43337;52.070;4.508;2023-01-31T14:20:05;102190.09;;;8.69;100.00
49030;BME280;43337;52.070;4.508;2023-01-31T14:22:33;102204.00;;;8.72;100.00
49030;BME280;43337;52.070;4.508;2023-01-31T14:27:43;102211.78;;;8.80;100.00
49030;BME280;43337;52.070;4.508;2023-01-31T14:30:21;102220.50;;;8.84;100.00
49030;BME280;43337;52.070;4.508;2023-01-31T14:33:14;102221.31;;;8.87;100.00